Time;durP1;ratioP1;P1;durP2;ratioP2;P2;SDS_P1;SDS_P2;PMS_P1;PMS_P2;Temp;Humidity;BMP_temperature;BMP_pressure;BME280_temperature;BME280_humidity;BME280_pressure;Samples;Min_cycle;Max_cycle;Signal;HPM_P1;HPM_P2
2022/11/10 00:00:21;;;;;;;33.85;15.00;;;;;;;9.91;100.00;100480.06;5053720;28;20444;-72
2022/11/10 00:02:46;;;;;;;34.35;13.77;;;;;;;9.93;100.00;100486.06;5053922;28;20111;-72
2022/11/10 00:05:13;;;;;;;35.83;14.48;;;;;;;9.96;100.00;100484.31;5053836;28;20020;-72
2022/11/10 00:07:38;;;;;;;32.90;13.75;;;;;;;9.96;100.00;100490.00;5052358;28;20478;-72
2022/11/10 00:10:05;;;;;;;31.17;15.50;;;;;;;9.96;100.00;100498.56;5051979;28;20032;-73
2022/11/10 00:12:31;;;;;;;34.42;15.65;;;;;;;9.97;100.00;100497.31;5053719;28;20047;-73
2022/11/10 00:17:41;;;;;;;31.52;15.82;;;;;;;9.94;100.00;100504.00;5052991;28;20063;-73
2022/11/10 00:20:07;;;;;;;38.88;15.50;;;;;;;9.93;100.00;100511.78;5050122;28;20447;-73
2022/11/10 00:22:33;;;;;;;35.30;14.85;;;;;;;9.93;100.00;100508.91;5051222;28;20040;-73
2022/11/10 00:24:59;;;;;;;34.85;15.57;;;;;;;9.91;100.00;100487.81;5049997;28;20043;-73
2022/11/10 00:27:24;;;;;;;31.45;14.68;;;;;;;9.89;100.00;100485.44;5049974;28;20115;-73
2022/11/10 00:29:50;;;;;;;36.90;16.23;;;;;;;9.94;100.00;100504.00;5051241;28;20016;-73
2022/11/10 00:32:15;;;;;;;37.78;16.02;;;;;;;9.91;100.00;100514.31;5051265;28;20109;-73
2022/11/10 00:34:40;;;;;;;38.60;16.67;;;;;;;9.84;100.00;100514.63;5050017;28;20021;-72
2022/11/10 00:37:06;;;;;;;28.25;15.05;;;;;;;9.84;100.00;100511.03;5053129;28;20400;-71
2022/11/10 00:39:31;;;;;;;31.85;14.98;;;;;;;9.84;100.00;100511.03;5053019;28;20091;-72
2022/11/10 00:41:57;;;;;;;31.13;15.82;;;;;;;9.85;100.00;100513.38;5050456;28;20481;-72
2022/11/10 00:44:22;;;;;;;34.33;14.82;;;;;;;9.84;100.00;100516.72;5051088;28;20107;-72
2022/11/10 00:46:47;;;;;;;31.80;15.15;;;;;;;9.79;100.00;100514.53;5051006;28;20020;-73
2022/11/10 00:49:13;;;;;;;29.15;14.52;;;;;;;9.72;100.00;100527.03;5051392;28;20036;-72
2022/11/10 00:51:38;;;;;;;33.75;15.70;;;;;;;9.75;100.00;100531.81;5050988;28;20155;-72
2022/11/10 00:54:04;;;;;;;32.83;14.75;;;;;;;9.73;100.00;100525.03;5033544;28;20021;-74
2022/11/10 00:56:29;;;;;;;34.75;15.40;;;;;;;9.67;100.00;100522.78;5052312;28;20040;-74
2022/11/10 00:58:54;;;;;;;35.72;16.90;;;;;;;9.64;100.00;100520.88;5053260;28;20083;-73
2022/11/10 01:01:25;;;;;;;31.65;15.40;;;;;;;9.67;100.00;100528.50;5053281;28;20025;-73
2022/11/10 01:03:51;;;;;;;37.33;15.45;;;;;;;9.64;100.00;100529.44;5053175;28;20021;-73
2022/11/10 01:06:18;;;;;;;33.78;14.48;;;;;;;9.66;100.00;100534.69;5053119;28;20064;-73
2022/11/10 01:08:43;;;;;;;31.95;14.70;;;;;;;9.68;100.00;100532.16;5051977;28;20045;-72
2022/11/10 01:11:13;;;;;;;34.40;15.20;;;;;;;9.72;100.00;100535.59;5052643;28;20430;-73
2022/11/10 01:13:39;;;;;;;32.17;14.10;;;;;;;9.73;100.00;100540.09;5053204;28;20033;-73
2022/11/10 01:16:06;;;;;;;33.05;14.80;;;;;;;9.75;100.00;100543.22;5051858;28;20424;-74
2022/11/10 01:18:32;;;;;;;34.55;14.85;;;;;;;9.67;100.00;100537.06;5051615;28;20052;-72
2022/11/10 01:20:57;;;;;;;34.47;14.95;;;;;;;9.61;100.00;100524.72;5052266;28;20083;-73
2022/11/10 01:23:23;;;;;;;35.05;15.75;;;;;;;9.76;100.00;100547.66;5057162;28;20033;-73
2022/11/10 01:25:48;;;;;;;31.40;14.45;;;;;;;9.78;100.00;100552.91;5056827;28;20108;-73
2022/11/10 01:28:13;;;;;;;28.33;13.90;;;;;;;9.76;100.00;100541.97;5055382;28;20017;-73
2022/11/10 01:30:39;;;;;;;29.10;13.82;;;;;;;9.77;100.00;100539.91;5055473;28;20024;-73
2022/11/10 01:33:04;;;;;;;34.30;14.25;;;;;;;9.78;100.00;100541.50;5056609;28;20021;-73
2022/11/10 01:35:30;;;;;;;32.65;15.40;;;;;;;9.55;100.00;100506.66;5055326;28;20120;-73
2022/11/10 01:37:55;;;;;;;37.15;16.52;;;;;;;9.78;100.00;100545.13;5056818;28;20104;-73
2022/11/10 01:40:21;;;;;;;31.63;14.40;;;;;;;9.76;100.00;100536.25;5055014;28;20512;-74
2022/11/10 01:42:55;;;;;;;32.35;14.20;;;;;;;9.74;100.00;100540.88;5056565;28;20074;-72
2022/11/10 01:45:23;;;;;;;31.65;13.90;;;;;;;9.64;100.00;100548.66;5056679;28;20032;-73
2022/11/10 01:48:08;;;;;;;34.50;15.43;;;;;;;9.44;100.00;100534.13;5056144;28;20504;-73
2022/11/10 01:50:38;;;;;;;35.70;15.60;;;;;;;9.50;100.00;100557.84;5055270;28;20025;-73
2022/11/10 01:53:06;;;;;;;31.35;14.55;;;;;;;9.48;100.00;100551.84;5055018;28;20099;-73
2022/11/10 01:55:33;;;;;;;32.75;14.95;;;;;;;9.46;100.00;100560.88;5056333;28;20121;-73
2022/11/10 01:57:58;;;;;;;30.13;15.80;;;;;;;9.47;100.00;100564.53;5055295;28;20028;-74
2022/11/10 02:00:24;;;;;;;32.85;14.32;;;;;;;9.26;100.00;100529.25;5054753;28;20032;-74
2022/11/10 02:02:56;;;;;;;37.22;15.18;;;;;;;9.43;100.00;100564.72;5056406;28;20106;-73
2022/11/10 02:05:23;;;;;;;38.00;15.65;;;;;;;9.43;100.00;100566.75;5054834;28;20350;-72
2022/11/10 02:07:50;;;;;;;34.10;15.10;;;;;;;9.42;100.00;100562.31;5054650;28;20431;-72
2022/11/10 02:10:16;;;;;;;30.90;15.35;;;;;;;9.45;100.00;100569.91;5055004;28;20020;-73
2022/11/10 02:12:42;;;;;;;29.48;15.00;;;;;;;9.48;100.00;100569.75;5055676;28;20033;-74
2022/11/10 02:15:11;;;;;;;31.13;14.73;;;;;;;9.51;100.00;100565.94;5054885;28;20036;-73
2022/11/10 02:17:36;;;;;;;35.20;14.95;;;;;;;9.54;100.00;100561.34;5055361;28;20021;-73
2022/11/10 02:20:06;;;;;;;33.03;14.63;;;;;;;9.56;100.00;100565.28;5054576;28;20378;-73
2022/11/10 02:22:32;;;;;;;30.80;13.23;;;;;;;9.55;100.00;100574.31;5052474;28;20048;-73
2022/11/10 02:24:58;;;;;;;26.98;13.02;;;;;;;9.58;100.00;100564.81;5052409;28;20374;-73
2022/11/10 02:27:24;;;;;;;33.50;13.93;;;;;;;9.50;100.00;100555.00;5052325;28;20021;-74
2022/11/10 02:29:49;;;;;;;27.63;13.35;;;;;;;9.66;100.00;100568.91;5053370;28;20017;-73
2022/11/10 02:32:14;;;;;;;34.90;13.30;;;;;;;9.69;100.00;100582.25;5052956;28;20024;-72
2022/11/10 02:34:40;;;;;;;27.25;13.98;;;;;;;9.68;100.00;100572.09;5053373;28;20544;-73
2022/11/10 02:37:06;;;;;;;24.77;12.88;;;;;;;9.68;100.00;100574.94;5053882;28;20021;-73
2022/11/10 02:39:31;;;;;;;27.70;14.20;;;;;;;9.69;100.00;100574.44;5053732;28;20508;-73
2022/11/10 02:41:57;;;;;;;29.77;14.00;;;;;;;9.70;100.00;100573.19;5051707;28;20024;-72
2022/11/10 02:44:22;;;;;;;27.85;13.13;;;;;;;9.72;100.00;100574.75;5052997;28;20029;-73
2022/11/10 02:46:47;;;;;;;29.23;14.27;;;;;;;9.72;100.00;100577.63;5053224;28;20036;-72
2022/11/10 02:49:13;;;;;;;32.20;14.63;;;;;;;9.72;100.00;100581.25;5053255;28;20016;-72
2022/11/10 02:51:38;;;;;;;26.45;13.35;;;;;;;9.74;100.00;100584.47;5053406;28;20484;-73
2022/11/10 02:54:05;;;;;;;29.85;14.70;;;;;;;9.72;100.00;100592.69;5053803;28;20024;-73
2022/11/10 02:56:31;;;;;;;28.30;13.20;;;;;;;9.72;100.00;100597.59;5055508;28;20017;-73
2022/11/10 02:58:56;;;;;;;30.05;14.55;;;;;;;9.73;100.00;100602.06;5054242;28;20035;-73
2022/11/10 03:01:22;;;;;;;28.60;12.60;;;;;;;9.73;100.00;100596.34;5055741;28;20021;-73
2022/11/10 03:03:47;;;;;;;29.27;14.15;;;;;;;9.72;100.00;100603.31;5055037;28;20036;-73
2022/11/10 03:06:12;;;;;;;23.23;12.82;;;;;;;9.70;100.00;100612.34;5054852;28;20048;-73
2022/11/10 03:08:38;;;;;;;23.85;12.75;;;;;;;9.69;100.00;100610.78;5053637;28;20071;-73
2022/11/10 03:11:04;;;;;;;29.75;13.60;;;;;;;9.69;100.00;100616.47;5054668;28;20021;-73
2022/11/10 03:13:29;;;;;;;24.95;13.35;;;;;;;9.67;100.00;100613.31;5053485;28;20039;-73
2022/11/10 03:15:55;;;;;;;30.85;14.27;;;;;;;9.64;100.00;100614.28;5054815;28;20032;-73
2022/11/10 03:18:21;;;;;;;30.45;13.93;;;;;;;9.53;100.00;100600.50;5053333;28;20029;-73
2022/11/10 03:20:48;;;;;;;24.95;13.13;;;;;;;9.68;100.00;100617.75;5054686;28;20041;-73
2022/11/10 03:23:14;;;;;;;29.88;14.27;;;;;;;9.66;100.00;100626.78;5053224;28;20033;-73
2022/11/10 03:25:40;;;;;;;26.15;14.15;;;;;;;9.66;100.00;100631.69;5054312;28;20111;-73
2022/11/10 03:28:05;;;;;;;25.20;13.10;;;;;;;9.65;100.00;100639.44;5054409;28;20421;-73
2022/11/10 03:30:31;;;;;;;30.55;14.30;;;;;;;9.58;100.00;100636.16;5054472;28;20585;-73
2022/11/10 03:32:56;;;;;;;25.60;12.05;;;;;;;9.59;100.00;100646.31;5053036;28;20025;-73
2022/11/10 03:35:22;;;;;;;27.20;12.75;;;;;;;9.56;100.00;100650.09;5054313;28;20025;-73
2022/11/10 03:37:47;;;;;;;23.13;12.10;;;;;;;9.55;100.00;100654.22;5054158;28;20405;-73
2022/11/10 03:40:12;;;;;;;27.13;12.65;;;;;;;9.54;100.00;100652.66;5053792;28;20041;-73
2022/11/10 03:42:42;;;;;;;21.98;12.20;;;;;;;9.55;100.00;100660.69;5054381;28;20032;-73
2022/11/10 03:45:09;;;;;;;24.40;12.57;;;;;;;9.55;100.00;100655.00;5052496;28;20040;-73
2022/11/10 03:47:34;;;;;;;27.00;12.60;;;;;;;9.57;100.00;100652.47;5054225;28;20082;-72
2022/11/10 03:49:59;;;;;;;25.17;12.48;;;;;;;9.57;100.00;100655.31;5054213;28;20025;-72
2022/11/10 03:52:25;;;;;;;23.48;12.43;;;;;;;9.60;100.00;100662.13;5053891;28;20029;-72
2022/11/10 03:54:50;;;;;;;27.40;12.43;;;;;;;9.57;100.00;100661.03;5053738;28;20025;-72
2022/11/10 03:57:16;;;;;;;24.45;11.75;;;;;;;9.59;100.00;100667.03;5052634;28;20024;-72
2022/11/10 03:59:41;;;;;;;25.02;12.52;;;;;;;9.57;100.00;100660.25;5053923;28;20025;-73
2022/11/10 04:02:06;;;;;;;26.50;11.73;;;;;;;9.58;100.00;100664.69;5053697;28;20431;-73
2022/11/10 04:10:00;;;;;;;23.45;11.43;;;;;;;9.63;100.00;100666.91;5054147;28;20130;-73
2022/11/10 04:18:19;;;;;;;26.83;11.48;;;;;;;9.63;100.00;100667.69;5053523;28;20175;-73
2022/11/10 04:20:44;;;;;;;25.83;12.18;;;;;;;9.66;100.00;100666.72;5053277;28;20065;-73
2022/11/10 04:28:48;;;;;;;23.25;10.98;;;;;;;9.50;100.00;100646.28;5053845;28;20086;-73
2022/11/10 04:31:15;;;;;;;24.33;11.13;;;;;;;9.65;100.00;100664.34;5053750;28;20127;-73
2022/11/10 04:33:42;;;;;;;23.02;11.27;;;;;;;9.64;100.00;100671.34;5053399;28;20040;-73
2022/11/10 04:36:09;;;;;;;21.85;10.55;;;;;;;9.62;100.00;100677.50;5053384;28;20025;-73
2022/11/10 04:38:34;;;;;;;21.35;10.35;;;;;;;9.60;100.00;100682.09;5052924;28;20056;-73
2022/11/10 04:41:00;;;;;;;22.60;10.70;;;;;;;9.50;100.00;100674.81;5053442;28;20126;-73
2022/11/10 04:43:26;;;;;;;21.75;11.52;;;;;;;9.57;100.00;100686.72;5053386;28;20057;-73
2022/11/10 04:45:51;;;;;;;20.67;9.93;;;;;;;9.58;100.00;100696.84;5052014;28;20466;-73
2022/11/10 04:48:17;;;;;;;21.27;9.43;;;;;;;9.56;100.00;100692.88;5053217;28;20021;-73
2022/11/10 04:50:42;;;;;;;20.42;11.13;;;;;;;9.62;100.00;100702.41;5052134;28;20029;-73
2022/11/10 04:53:07;;;;;;;17.95;11.07;;;;;;;9.62;100.00;100700.34;5053040;28;20029;-73
2022/11/10 04:55:33;;;;;;;21.95;10.68;;;;;;;9.62;100.00;100697.47;5054811;28;20029;-73
2022/11/10 04:57:58;;;;;;;19.33;9.98;;;;;;;9.60;100.00;100702.88;5057190;28;20436;-73
2022/11/10 05:00:24;;;;;;;26.58;11.65;;;;;;;9.57;100.00;100708.75;5057195;28;20504;-73
2022/11/10 05:02:50;;;;;;;18.60;9.02;;;;;;;9.54;100.00;100712.56;5057094;28;20044;-73
2022/11/10 05:05:15;;;;;;;20.27;9.68;;;;;;;9.48;100.00;100708.75;5057209;28;20055;-73
2022/11/10 05:07:40;;;;;;;18.88;9.00;;;;;;;9.40;100.00;100708.25;5057029;28;20021;-73
2022/11/10 05:10:07;;;;;;;19.25;9.88;;;;;;;9.32;100.00;100718.41;5039155;28;20028;-73
2022/11/10 05:12:32;;;;;;;21.15;10.93;;;;;;;9.28;100.00;100714.91;5056410;28;20025;-73
2022/11/10 05:14:58;;;;;;;21.77;10.25;;;;;;;9.30;100.00;100720.16;5057390;28;20029;-73
2022/11/10 05:17:25;;;;;;;20.48;9.32;;;;;;;9.24;100.00;100715.09;5057002;28;20359;-73
2022/11/10 05:19:51;;;;;;;23.08;11.07;;;;;;;9.24;100.00;100723.63;5057102;28;20401;-73
2022/11/10 05:22:16;;;;;;;20.48;10.00;;;;;;;9.22;100.00;100729.00;5055893;28;20044;-73
2022/11/10 05:24:42;;;;;;;23.02;10.90;;;;;;;9.15;100.00;100728.53;5057027;28;20489;-73
2022/11/10 05:27:08;;;;;;;22.30;11.05;;;;;;;9.13;100.00;100731.84;5056781;28;20028;-73
2022/11/10 05:29:34;;;;;;;17.42;8.68;;;;;;;9.09;100.00;100741.81;5055613;28;20029;-72
2022/11/10 05:32:01;;;;;;;17.55;10.10;;;;;;;9.04;100.00;100740.38;5056845;28;20102;-72
2022/11/10 05:34:27;;;;;;;19.52;8.73;;;;;;;9.07;100.00;100741.50;5055819;28;20033;-73
2022/11/10 05:36:53;;;;;;;15.27;8.60;;;;;;;9.04;100.00;100743.25;5056513;28;20035;-72
2022/11/10 05:39:20;;;;;;;17.42;8.98;;;;;;;9.07;100.00;100750.84;5056175;28;20057;-72
2022/11/10 05:41:47;;;;;;;16.08;7.93;;;;;;;9.11;100.00;100762.88;5055230;28;20021;-72
2022/11/10 05:44:13;;;;;;;14.50;7.70;;;;;;;9.16;100.00;100772.88;5056687;28;20583;-72
2022/11/10 05:46:41;;;;;;;15.10;7.00;;;;;;;9.15;100.00;100769.22;5056130;28;20045;-72
2022/11/10 05:49:08;;;;;;;16.80;8.07;;;;;;;9.12;100.00;100764.47;5056668;28;20021;-74
2022/11/10 05:51:34;;;;;;;15.65;7.80;;;;;;;9.14;100.00;100776.19;5055889;28;20037;-74
2022/11/10 05:54:00;;;;;;;15.63;6.88;;;;;;;9.15;100.00;100780.63;5055299;28;20139;-74
2022/11/10 05:56:27;;;;;;;13.88;8.13;;;;;;;9.12;100.00;100777.94;5056230;28;20107;-73
2022/11/10 05:58:55;;;;;;;14.45;7.20;;;;;;;9.14;100.00;100789.66;5056341;28;20496;-73
2022/11/10 06:01:21;;;;;;;22.23;8.30;;;;;;;9.12;100.00;100795.81;5056054;28;20438;-73
2022/11/10 06:03:48;;;;;;;14.93;7.13;;;;;;;9.12;100.00;100809.28;5055120;28;20041;-73
2022/11/10 06:06:13;;;;;;;13.80;6.85;;;;;;;9.09;100.00;100805.34;5055721;28;20032;-74
2022/11/10 06:08:40;;;;;;;15.55;8.38;;;;;;;9.07;100.00;100807.84;5055854;28;20029;-74
2022/11/10 06:11:07;;;;;;;14.32;7.95;;;;;;;9.07;100.00;100807.84;5056156;28;20470;-74
2022/11/10 06:13:33;;;;;;;13.02;7.07;;;;;;;9.14;100.00;100827.53;5055765;28;20039;-74
2022/11/10 06:16:00;;;;;;;14.13;6.53;;;;;;;9.14;100.00;100818.97;5054642;28;20576;-73
2022/11/10 06:18:33;;;;;;;13.02;6.47;;;;;;;9.14;100.00;100830.38;5055563;28;20033;-76
2022/11/10 06:20:58;;;;;;;12.90;6.93;;;;;;;9.12;100.00;100841.44;5054414;28;20094;-73
2022/11/10 06:23:24;;;;;;;12.32;7.03;;;;;;;9.10;100.00;100840.34;5055144;28;20044;-73
2022/11/10 06:25:51;;;;;;;15.05;7.63;;;;;;;9.08;100.00;100849.34;5055485;28;20116;-73
2022/11/10 06:28:16;;;;;;;10.80;6.32;;;;;;;9.04;100.00;100848.72;5055487;28;20044;-74
2022/11/10 06:30:42;;;;;;;12.30;6.45;;;;;;;8.98;100.00;100859.13;5054820;28;20086;-75
2022/11/10 06:33:08;;;;;;;13.38;6.80;;;;;;;8.95;100.00;100862.94;5055210;28;20429;-75
2022/11/10 06:35:35;;;;;;;13.32;6.28;;;;;;;9.05;100.00;100864.53;5055569;28;20037;-75
2022/11/10 06:38:08;;;;;;;13.95;7.55;;;;;;;9.09;100.00;100878.66;5054143;28;20124;-75
2022/11/10 06:40:34;;;;;;;14.48;6.95;;;;;;;9.12;100.00;100884.22;5054918;28;20129;-75
2022/11/10 06:43:00;;;;;;;12.50;6.43;;;;;;;9.11;100.00;100884.66;5051583;28;20120;-75
2022/11/10 06:45:27;;;;;;;13.07;6.18;;;;;;;9.13;100.00;100890.72;5052881;28;20454;-75
2022/11/10 06:48:02;;;;;;;22.60;7.57;;;;;;;9.14;100.00;100893.09;5052937;28;20032;-75
2022/11/10 06:50:28;;;;;;;19.08;7.45;;;;;;;9.19;100.00;100901.03;5053665;28;20427;-76
2022/11/10 06:52:55;;;;;;;17.30;6.75;;;;;;;9.23;100.00;100904.53;5054012;28;20035;-76
2022/11/10 06:55:20;;;;;;;14.77;5.57;;;;;;;9.25;100.00;100910.56;5053847;28;20086;-76
2022/11/10 06:57:45;;;;;;;15.38;7.30;;;;;;;9.25;100.00;100909.75;5054542;28;20037;-75
2022/11/10 07:00:12;;;;;;;11.88;4.82;;;;;;;9.33;100.00;100915.97;5054533;28;20035;-75
2022/11/10 07:02:37;;;;;;;13.88;5.65;;;;;;;9.32;100.00;100912.31;5037083;28;20024;-75
2022/11/10 07:05:02;;;;;;;11.98;6.70;;;;;;;9.37;100.00;100919.47;5055197;28;20472;-75
2022/11/10 07:07:28;;;;;;;12.30;5.53;;;;;;;9.40;100.00;100924.22;5055062;28;20082;-75
2022/11/10 07:09:53;;;;;;;12.18;4.82;;;;;;;9.50;100.00;100934.41;5054777;28;20453;-76
2022/11/10 07:12:19;;;;;;;12.30;5.07;;;;;;;9.55;100.00;100934.59;5054663;28;20035;-75
2022/11/10 07:14:44;;;;;;;14.27;5.47;;;;;;;9.58;100.00;100939.38;5054494;28;20064;-76
2022/11/10 07:17:09;;;;;;;9.65;4.30;;;;;;;9.62;100.00;100939.22;5053647;28;20029;-76
2022/11/10 07:19:35;;;;;;;12.02;5.65;;;;;;;9.63;100.00;100941.59;5053289;28;20032;-74
2022/11/10 07:22:00;;;;;;;7.10;4.53;;;;;;;9.74;100.00;100943.25;5054449;28;20112;-75
2022/11/10 07:24:29;;;;;;;8.90;4.82;;;;;;;9.78;100.00;100944.69;5054347;28;20437;-75
2022/11/10 07:26:55;;;;;;;15.02;5.38;;;;;;;9.84;100.00;100957.06;5054407;28;20494;-75
2022/11/10 07:29:21;;;;;;;10.43;5.57;;;;;;;9.91;100.00;100958.81;5054223;28;20035;-75
2022/11/10 07:31:47;;;;;;;10.98;5.03;;;;;;;9.94;100.00;100964.38;5053040;28;20111;-76
2022/11/10 07:34:12;;;;;;;9.93;4.85;;;;;;;9.86;100.00;100945.97;5053374;28;20079;-75
2022/11/10 07:36:38;;;;;;;12.15;5.05;;;;;;;10.03;100.00;100981.53;5054204;28;20032;-75
2022/11/10 07:39:03;;;;;;;9.25;5.28;;;;;;;10.05;100.00;100981.06;5054017;28;20112;-76
2022/11/10 07:41:29;;;;;;;21.25;5.53;;;;;;;10.05;100.00;100972.50;5054270;28;20465;-75
2022/11/10 07:43:54;;;;;;;12.20;4.63;;;;;;;10.05;100.00;100979.00;5052990;28;20036;-76
2022/11/10 07:46:20;;;;;;;9.27;6.00;;;;;;;9.91;100.00;100953.91;5053353;28;20040;-76
2022/11/10 07:48:45;;;;;;;17.92;7.22;;;;;;;9.98;100.00;100985.03;5052992;28;20389;-75
2022/11/10 07:51:11;;;;;;;12.40;5.72;;;;;;;9.90;100.00;100980.06;5052872;28;20090;-75
2022/11/10 07:53:36;;;;;;;10.30;4.97;;;;;;;9.88;100.00;100991.97;5036088;28;20535;-75
2022/11/10 07:56:01;;;;;;;11.20;4.53;;;;;;;9.83;100.00;100989.75;5052601;28;20031;-76
2022/11/10 07:58:28;;;;;;;9.90;4.65;;;;;;;9.74;100.00;100992.56;5052053;28;20056;-75
2022/11/10 08:00:53;;;;;;;8.95;4.55;;;;;;;9.70;100.00;101003.28;5053163;28;20035;-73
2022/11/10 08:03:20;;;;;;;8.30;4.20;;;;;;;9.60;100.00;101010.22;5052276;28;20397;-72
2022/11/10 08:05:45;;;;;;;10.85;5.13;;;;;;;9.53;100.00;101004.81;5053900;28;20032;-73
2022/11/10 08:08:11;;;;;;;10.13;4.25;;;;;;;9.39;100.00;100996.81;5053711;28;20024;-73
2022/11/10 08:10:38;;;;;;;9.55;4.47;;;;;;;9.40;100.00;101012.66;5053884;28;20485;-72
2022/11/10 08:13:06;;;;;;;10.20;4.47;;;;;;;9.36;100.00;101015.66;5053546;28;20032;-72
2022/11/10 08:15:33;;;;;;;10.52;4.43;;;;;;;9.34;100.00;101021.03;5053136;28;20055;-73
2022/11/10 08:18:20;;;;;;;14.38;4.70;;;;;;;9.30;100.00;101033.84;5052376;28;20024;-72
2022/11/10 08:20:47;;;;;;;13.23;4.72;;;;;;;9.29;100.00;101033.06;5035261;28;20025;-74
2022/11/10 08:23:13;;;;;;;10.85;4.72;;;;;;;9.23;100.00;101026.34;5052488;28;20025;-74
2022/11/10 08:25:39;;;;;;;9.45;5.03;;;;;;;9.29;100.00;101035.13;5053298;28;20527;-74
2022/11/10 08:28:09;;;;;;;17.23;5.60;;;;;;;9.38;100.00;101032.31;5053414;28;20036;-73
2022/11/10 08:30:36;;;;;;;15.77;4.32;;;;;;;9.58;100.00;101047.78;5052205;28;20059;-72
2022/11/10 08:33:03;;;;;;;8.10;4.15;;;;;;;9.77;100.00;101037.28;5051369;28;20036;-74
2022/11/10 08:35:30;;;;;;;10.05;5.03;;;;;;;10.06;100.00;101048.31;5057571;28;20032;-72
2022/11/10 08:37:55;;;;;;;7.13;3.95;;;;;;;10.31;100.00;101050.94;5059895;28;20053;-72
2022/11/10 08:40:26;;;;;;;9.93;4.35;;;;;;;10.46;100.00;101060.47;5061818;28;20059;-71
2022/11/10 08:42:58;;;;;;;6.82;4.18;;;;;;;10.62;100.00;101064.31;5064900;28;20044;-72
2022/11/10 08:45:24;;;;;;;11.07;5.40;;;;;;;10.77;100.00;101068.94;5064304;28;20028;-71
2022/11/10 08:47:58;;;;;;;8.68;4.47;;;;;;;10.88;100.00;101066.38;5061942;28;20055;-72
2022/11/10 08:50:23;;;;;;;8.43;3.97;;;;;;;10.95;100.00;101068.13;5053488;28;20465;-73
2022/11/10 08:52:48;;;;;;;11.93;4.40;;;;;;;11.11;100.00;101072.75;5052724;28;20099;-73
2022/11/10 08:55:14;;;;;;;8.68;3.97;;;;;;;11.16;100.00;101077.84;5052821;28;20090;-72
2022/11/10 08:57:39;;;;;;;12.73;4.72;;;;;;;11.23;100.00;101074.66;5034503;28;20108;-73
2022/11/10 09:00:05;;;;;;;13.45;4.70;;;;;;;11.21;100.00;101083.72;5050909;28;20032;-73
2022/11/10 09:02:31;;;;;;;13.07;4.15;;;;;;;11.23;100.00;101083.22;5052503;28;20420;-73
2022/11/10 09:04:56;;;;;;;14.02;4.40;;;;;;;11.27;100.00;101092.47;5052873;28;20527;-73
2022/11/10 09:07:21;;;;;;;9.98;4.70;;;;;;;11.25;100.00;101092.13;5051148;28;20057;-73
2022/11/10 09:09:50;;;;;;;7.97;4.22;;;;;;;11.24;100.00;101087.69;5052689;28;20033;-73
2022/11/10 09:12:16;;;;;;;8.98;4.72;;;;;;;11.20;100.00;101101.38;5052409;28;20308;-73
2022/11/10 09:14:42;;;;;;;7.82;4.28;;;;;;;11.18;100.00;101104.69;5051935;28;20086;-73
2022/11/10 09:17:07;;;;;;;10.02;4.35;;;;;;;11.23;100.00;101106.13;5052482;28;20032;-73
2022/11/10 09:19:32;;;;;;;9.90;4.13;;;;;;;11.34;100.00;101103.56;5063277;28;20547;-74
2022/11/10 09:21:58;;;;;;;9.23;4.10;;;;;;;11.54;100.00;101112.44;5072436;28;20017;-74
2022/11/10 09:24:23;;;;;;;6.68;2.95;;;;;;;11.69;100.00;101101.91;5071059;28;20390;-79
2022/11/10 09:26:48;;;;;;;8.27;3.00;;;;;;;11.66;100.00;101097.16;5071424;28;20103;-72
2022/11/10 09:29:14;;;;;;;4.18;2.45;;;;;;;11.62;100.00;101115.75;5072113;28;20024;-72
2022/11/10 09:31:42;;;;;;;9.40;3.40;;;;;;;11.58;100.00;101110.22;5072140;28;20457;-72
2022/11/10 09:34:08;;;;;;;6.72;2.67;;;;;;;11.55;100.00;101125.50;5072239;28;20078;-74
2022/11/10 09:36:34;;;;;;;8.00;3.40;;;;;;;11.49;100.00;101126.59;5070883;28;20369;-72
2022/11/10 09:38:59;;;;;;;7.65;3.10;;;;;;;11.54;100.00;101128.81;5070587;28;20045;-73
2022/11/10 09:41:28;;;;;;;5.97;3.30;;;;;;;11.56;100.00;101126.28;5072054;28;20037;-72
2022/11/10 09:44:05;;;;;;;6.47;2.03;;;;;;;11.70;100.00;101128.47;5075540;28;20083;-73
2022/11/10 09:46:43;;;;;;;9.70;2.60;;;;;;;11.78;100.00;101135.44;5073032;28;20067;-72
2022/11/10 09:49:26;;;;;;;3.53;2.17;;;;;;;11.77;100.00;101134.66;5053104;28;20104;-73
2022/11/10 09:51:52;;;;;;;8.20;2.90;;;;;;;11.74;100.00;101138.50;5056456;28;20033;-73
2022/11/10 09:54:39;;;;;;;6.95;1.83;;;;;;;11.81;100.00;101146.72;5056159;28;20028;-73
2022/11/10 09:57:06;;;;;;;6.00;2.45;;;;;;;11.73;100.00;101136.09;5055107;28;20025;-73
2022/11/10 09:59:33;;;;;;;14.32;2.95;;;;;;;11.74;100.00;101138.50;5055824;28;20420;-74
2022/11/10 10:02:16;;;;;;;8.57;2.90;;;;;;;11.74;100.00;101137.69;5054917;28;20028;-72
2022/11/10 10:05:09;;;;;;;3.42;1.98;;;;;;;11.71;100.00;101147.25;5056331;28;20024;-75
2022/11/10 10:07:47;;;;;;;5.50;1.85;;;;;;;11.66;100.00;101157.28;5056024;28;20033;-73
2022/11/10 10:10:30;;;;;;;6.53;1.83;;;;;;;11.74;100.00;101154.88;5055047;28;20072;-72
2022/11/10 10:13:01;;;;;;;4.68;2.03;;;;;;;11.80;100.00;101148.03;5055879;28;20114;-73
2022/11/10 10:16:00;;;;;;;6.77;2.57;;;;;;;11.75;100.00;101154.41;5056088;28;20386;-77
2022/11/10 10:18:52;;;;;;;6.63;2.20;;;;;;;11.79;100.00;101160.75;5054537;28;20606;-74
2022/11/10 10:21:45;;;;;;;4.32;1.77;;;;;;;11.84;100.00;101156.44;5055884;28;20025;-72
2022/11/10 10:24:16;;;;;;;4.10;2.40;;;;;;;11.81;100.00;101161.03;5054698;28;20124;-75
2022/11/10 10:26:52;;;;;;;1.95;1.42;;;;;;;11.80;100.00;101161.56;5055572;28;20032;-73
2022/11/10 10:29:48;;;;;;;5.15;2.00;;;;;;;11.83;100.00;101166.31;5054628;28;20033;-74
2022/11/10 10:32:14;;;;;;;4.93;1.85;;;;;;;11.87;100.00;101160.41;5055173;28;20040;-73
2022/11/10 10:34:40;;;;;;;3.70;1.63;;;;;;;11.89;100.00;101157.84;5055490;28;20079;-74
2022/11/10 10:37:20;;;;;;;8.00;2.10;;;;;;;11.93;100.00;101165.00;5054331;28;20390;-75
2022/11/10 10:39:49;;;;;;;8.45;2.10;;;;;;;11.93;100.00;101164.22;5055040;28;20037;-73
2022/11/10 10:42:30;;;;;;;4.50;1.73;;;;;;;11.96;100.00;101155.44;5055746;28;20017;-72
2022/11/10 10:45:27;;;;;;;4.82;2.22;;;;;;;12.02;100.00;101167.84;5055640;28;20025;-73
2022/11/10 10:47:55;;;;;;;5.38;1.63;;;;;;;12.04;100.00;101159.56;5055297;28;20060;-73
2022/11/10 10:50:21;;;;;;;4.28;2.13;;;;;;;12.08;100.00;101163.06;5055719;28;20028;-74
2022/11/10 10:53:07;;;;;;;10.15;2.05;;;;;;;12.15;100.00;101162.72;5055087;28;20029;-72
2022/11/10 10:55:34;;;;;;;5.35;2.22;;;;;;;12.21;100.00;101159.97;5058556;28;20037;-76
2022/11/10 10:58:02;;;;;;;8.90;2.83;;;;;;;12.31;100.00;101161.53;5055709;28;20091;-74
2022/11/10 11:00:28;;;;;;;9.18;3.58;;;;;;;12.42;100.00;101172.50;5055550;28;20025;-75
2022/11/10 11:03:21;;;;;;;5.07;2.00;;;;;;;12.41;100.00;101174.56;5054347;28;20052;-76
2022/11/10 11:05:59;;;;;;;6.90;1.85;;;;;;;12.53;100.00;101172.78;5053475;28;20102;-76
2022/11/10 11:08:25;;;;;;;9.80;2.92;;;;;;;12.58;100.00;101169.25;5036897;28;20359;-75
2022/11/10 11:10:51;;;;;;;5.00;1.98;;;;;;;12.74;100.00;101177.44;5055049;28;20050;-74
2022/11/10 11:13:26;;;;;;;9.75;2.00;;;;;;;13.03;100.00;101183.31;5055058;28;20036;-76
2022/11/10 11:16:06;;;;;;;10.13;3.53;;;;;;;13.19;100.00;101172.69;5053951;28;20024;-75
2022/11/10 11:18:33;;;;;;;7.10;2.33;;;;;;;13.17;100.00;101183.84;5054721;28;20029;-75
2022/11/10 11:21:05;;;;;;;11.93;2.67;;;;;;;13.14;100.00;101180.66;5053596;28;20529;-76
2022/11/10 11:23:37;;;;;;;6.72;2.08;;;;;;;13.23;100.00;101179.03;5053965;28;20040;-77
2022/11/10 11:26:30;;;;;;;7.88;2.97;;;;;;;13.10;100.00;101185.00;5054903;28;20024;-76
2022/11/10 11:29:19;;;;;;;12.55;2.47;;;;;;;13.29;100.00;101179.94;5054329;28;20068;-75
2022/11/10 11:31:49;;;;;;;4.53;2.65;;;;;;;13.43;100.00;101185.72;5053568;28;20067;-74
2022/11/10 11:34:23;;;;;;;9.57;2.58;;;;;;;13.41;100.00;101161.63;5053581;28;20071;-75
2022/11/10 11:37:10;;;;;;;4.82;1.90;;;;;;;13.30;100.00;101178.63;5053284;28;20489;-76